Time;durP1;ratioP1;P1;durP2;ratioP2;P2;SDS_P1;SDS_P2;PMS_P1;PMS_P2;Temp;Humidity;BMP_temperature;BMP_pressure;BME280_temperature;BME280_humidity;BME280_pressure;Samples;Min_cycle;Max_cycle;Signal;HPM_P1;HPM_P2
2021/12/22 00:00:18;;;;;;;0.67;0.67;;;26.30;99.90;;;;;;5074265;28;20225;-69
2021/12/22 00:02:46;;;;;;;0.83;0.83;;;26.20;99.90;;;;;;5078406;28;20240;-70
2021/12/22 00:05:23;;;;;;;9.27;2.47;;;26.00;99.90;;;;;;5071990;28;20195;-68
2021/12/22 00:07:51;;;;;;;0.50;0.50;;;26.20;99.90;;;;;;5081996;28;20242;-70
2021/12/22 00:10:19;;;;;;;1.50;1.17;;;26.20;99.90;;;;;;5069578;28;20657;-71
2021/12/22 00:12:48;;;;;;;0.67;0.50;;;26.20;99.90;;;;;;5071846;28;20207;-69
2021/12/22 00:15:16;;;;;;;0.83;0.83;;;26.30;99.90;;;;;;5072384;28;20194;-70
2021/12/22 00:17:44;;;;;;;0.60;0.60;;;26.40;99.90;;;;;;5068903;28;20214;-71
2021/12/22 00:20:14;;;;;;;2.40;1.50;;;26.50;99.90;;;;;;5077946;28;20222;-72
2021/12/22 00:22:42;;;;;;;0.83;0.83;;;26.60;99.90;;;;;;5070630;28;20179;-70
2021/12/22 00:25:10;;;;;;;0.97;0.57;;;26.80;99.90;;;;;;5070610;28;20642;-71
2021/12/22 00:27:38;;;;;;;0.40;0.40;;;26.80;99.90;;;;;;5069043;28;20214;-71
2021/12/22 00:30:06;;;;;;;0.50;0.50;;;27.00;99.90;;;;;;5070860;28;20183;-70
2021/12/22 00:32:36;;;;;;;0.40;0.40;;;27.10;99.90;;;;;;5071114;28;20714;-70
2021/12/22 00:35:04;;;;;;;1.00;0.80;;;27.20;99.90;;;;;;5070780;28;20703;-70
2021/12/22 00:37:33;;;;;;;0.67;0.67;;;27.40;99.90;;;;;;5071169;28;20253;-69
2021/12/22 00:40:01;;;;;;;1.00;0.93;;;27.30;99.90;;;;;;5071466;28;20183;-69
2021/12/22 00:42:28;;;;;;;1.33;1.23;;;27.40;99.90;;;;;;5053309;28;20194;-69
2021/12/22 00:44:56;;;;;;;0.70;0.70;;;27.60;99.90;;;;;;5070964;28;20239;-68
2021/12/22 00:47:30;;;;;;;0.70;0.57;;;27.50;99.90;;;;;;5071231;28;20206;-68
2021/12/22 00:49:59;;;;;;;5.37;1.03;;;27.80;99.90;;;;;;5070841;28;20183;-70
2021/12/22 00:52:27;;;;;;;2.30;1.25;;;28.00;99.90;;;;;;4923424;28;25082;-65
2021/12/22 00:54:55;;;;;;;0.83;0.83;;;28.20;99.90;;;;;;5070828;28;20179;-70
2021/12/22 00:57:23;;;;;;;0.60;0.60;;;28.10;99.90;;;;;;5067464;28;20219;-68
2021/12/22 00:59:50;;;;;;;3.10;2.27;;;27.80;99.90;;;;;;5070088;28;20266;-68
2021/12/22 01:02:19;;;;;;;2.50;1.43;;;27.50;99.90;;;;;;5069380;28;20225;-66
2021/12/22 01:04:48;;;;;;;12.40;5.83;;;27.20;99.90;;;;;;5069744;28;20262;-65
2021/12/22 01:07:15;;;;;;;20.00;7.83;;;27.10;99.90;;;;;;5046654;28;20187;-67
2021/12/22 01:09:42;;;;;;;;;;;;;;;;;;5067201;28;20418;-75
2021/12/22 01:12:09;;;;;;;14.43;5.43;;;;;;;;;;5066075;28;20483;-65
2021/12/22 01:14:38;;;;;;;13.23;5.93;;;;;;;;;;5068028;28;20407;-70
2021/12/22 01:17:06;;;;;;;9.50;3.05;;;;;;;;;;5067254;28;20496;-68
2021/12/22 01:19:48;;;;;;;11.35;5.50;;;;;;;;;;5063598;28;20404;-75
2021/12/22 01:22:33;;;;;;;12.43;4.87;;;;;;;;;;5065417;28;20650;-71
2021/12/22 01:25:06;;;;;;;11.80;5.37;;;;;;;;;;5068705;28;20188;-71
2021/12/22 01:27:37;;;;;;;11.43;5.67;;;;;;;;;;5066170;28;20195;-70
2021/12/22 01:36:50;;;;;;;11.95;5.68;;;29.90;52.40;;;;;;5083614;27;20903;-73
2021/12/22 01:39:20;;;;;;;14.90;5.60;;;28.80;54.70;;;;;;5083693;28;20188;-75
2021/12/22 01:41:48;;;;;;;11.77;5.80;;;28.10;56.50;;;;;;5089606;28;20625;-74
2021/12/22 01:45:00;;;;;;;13.40;5.93;;;27.90;58.20;;;;;;5090577;28;20186;-75
2021/12/22 01:50:17;;;;;;;10.53;4.80;;;27.60;58.70;;;;;;5084724;28;20313;-73
2021/12/22 01:52:45;;;;;;;11.43;5.20;;;27.30;58.80;;;;;;5091029;28;20278;-73
2021/12/22 01:55:31;;;;;;;9.17;5.60;;;27.90;57.30;;;;;;5087620;28;20218;-72
2021/12/22 01:58:08;;;;;;;10.17;4.77;;;28.40;56.70;;;;;;5081677;28;20541;-75
2021/12/22 02:00:35;;;;;;;12.03;5.20;;;28.40;56.90;;;;;;5085139;28;20193;-76
2021/12/22 02:03:03;;;;;;;9.77;4.63;;;28.60;55.90;;;;;;5089417;28;20182;-74
2021/12/22 02:05:30;;;;;;;11.10;5.60;;;28.40;55.70;;;;;;5084236;28;20182;-76
2021/12/22 02:08:01;;;;;;;11.47;4.87;;;28.10;56.50;;;;;;5084662;28;20252;-75
2021/12/22 02:10:45;;;;;;;14.47;4.70;;;27.70;57.90;;;;;;5088434;28;20228;-73
2021/12/22 02:13:22;;;;;;;11.93;7.00;;;27.90;56.40;;;;;;5092380;28;20198;-77
2021/12/22 02:15:50;;;;;;;8.17;4.53;;;28.10;56.40;;;;;;5089050;28;20237;-75
2021/12/22 02:18:21;;;;;;;13.40;7.03;;;28.40;54.90;;;;;;5089993;28;20242;-75
2021/12/22 02:20:50;;;;;;;10.17;4.50;;;28.30;55.50;;;;;;5092291;28;20540;-76
2021/12/22 02:23:18;;;;;;;8.07;4.30;;;27.90;56.10;;;;;;5089618;28;20197;-75
2021/12/22 02:25:53;;;;;;;8.93;4.17;;;27.80;56.30;;;;;;5088767;28;20268;-74
2021/12/22 02:28:26;;;;;;;8.03;4.33;;;28.30;55.60;;;;;;5088987;28;20185;-76
2021/12/22 02:30:54;;;;;;;10.43;4.33;;;28.30;54.50;;;;;;5086954;28;20232;-74
2021/12/22 02:33:24;;;;;;;10.60;4.30;;;28.80;54.20;;;;;;5081382;27;20243;-77
2021/12/22 02:36:09;;;;;;;7.57;3.93;;;29.10;53.40;;;;;;5088496;28;20222;-75
2021/12/22 02:38:42;;;;;;;6.57;3.77;;;29.00;53.10;;;;;;5088882;28;20190;-74
2021/12/22 02:41:13;;;;;;;11.60;4.20;;;29.10;52.60;;;;;;5088099;28;20186;-75
2021/12/22 02:43:48;;;;;;;8.73;4.00;;;29.40;51.80;;;;;;5088966;28;20186;-76
2021/12/22 02:46:24;;;;;;;11.83;5.53;;;29.50;50.70;;;;;;5085641;28;20221;-73
2021/12/22 02:48:53;;;;;;;9.13;4.33;;;29.20;51.90;;;;;;5075374;28;20175;-78
2021/12/22 02:51:21;;;;;;;11.03;4.83;;;28.80;53.50;;;;;;5075168;28;20293;-77
2021/12/22 02:56:49;;;;;;;8.73;4.23;;;28.70;52.90;;;;;;5068992;28;20221;-73
2021/12/22 02:59:52;;;;;;;10.53;3.97;;;29.20;52.10;;;;;;5074464;28;20179;-73
2021/12/22 03:04:52;;;;;;;9.87;3.70;;;29.20;51.20;;;;;;5074541;28;20175;-72
2021/12/22 03:07:23;;;;;;;8.60;3.83;;;29.30;50.70;;;;;;5074783;28;20179;-72
2021/12/22 03:10:14;;;;;;;8.48;4.10;;;28.90;52.20;;;;;;5074956;28;20183;-69
2021/12/22 03:12:55;;;;;;;10.75;3.97;;;29.60;51.10;;;;;;5070174;28;20668;-76
2021/12/22 03:15:26;;;;;;;12.80;4.17;;;29.60;50.50;;;;;;5074664;28;20294;-76
2021/12/22 03:17:53;;;;;;;12.13;4.35;;;29.40;50.50;;;;;;5074369;28;20187;-73
2021/12/22 03:20:20;;;;;;;6.75;3.95;;;29.50;50.30;;;;;;5074230;28;20218;-71
2021/12/22 03:22:48;;;;;;;7.47;3.75;;;29.50;50.10;;;;;;5074484;28;20182;-73
2021/12/22 03:25:17;;;;;;;12.60;4.38;;;29.80;49.80;;;;;;5074107;28;20314;-75
2021/12/22 03:27:57;;;;;;;9.70;4.28;;;30.10;49.00;;;;;;5073901;28;20699;-72
2021/12/22 03:30:29;;;;;;;9.95;3.88;;;29.80;50.00;;;;;;5066995;28;20182;-72
2021/12/22 03:32:56;;;;;;;7.67;3.37;;;29.60;50.70;;;;;;5074112;28;20214;-72
2021/12/22 03:35:24;;;;;;;9.85;3.75;;;29.40;50.30;;;;;;5073746;28;20223;-74
2021/12/22 03:37:57;;;;;;;12.50;4.18;;;29.90;49.60;;;;;;5099243;27;20198;-75
2021/12/22 03:40:29;;;;;;;10.40;4.43;;;30.30;48.80;;;;;;5074195;28;20175;-76
2021/12/22 03:42:59;;;;;;;7.25;3.60;;;30.30;48.90;;;;;;5077057;28;20175;-75
2021/12/22 03:45:26;;;;;;;13.05;4.07;;;30.30;49.00;;;;;;5074897;28;20179;-74
2021/12/22 03:48:00;;;;;;;10.48;3.58;;;30.80;48.00;;;;;;5080577;28;20185;-74
2021/12/22 03:50:27;;;;;;;10.80;4.30;;;30.70;47.70;;;;;;5080639;28;20164;-74
2021/12/22 03:52:54;;;;;;;13.40;4.32;;;29.80;50.10;;;;;;5069495;28;20179;-74
2021/12/22 03:55:27;;;;;;;11.85;3.55;;;29.80;50.50;;;;;;5072812;28;20274;-76
2021/12/22 03:57:55;;;;;;;12.18;4.53;;;30.20;50.20;;;;;;5060478;28;20188;-76
2021/12/22 04:00:22;;;;;;;13.05;4.53;;;30.70;49.00;;;;;;5066945;28;20285;-74
2021/12/22 04:02:50;;;;;;;10.32;4.75;;;29.90;50.20;;;;;;5068403;28;20188;-73
2021/12/22 04:05:18;;;;;;;13.50;4.70;;;29.30;52.30;;;;;;5065201;28;20241;-73
2021/12/22 04:07:46;;;;;;;15.68;4.82;;;29.70;52.00;;;;;;5068524;28;20184;-75
2021/12/22 04:10:22;;;;;;;14.27;5.18;;;29.80;51.90;;;;;;5070230;28;20269;-76
2021/12/22 04:12:54;;;;;;;18.05;5.20;;;29.50;52.10;;;;;;5059787;28;20646;-79
2021/12/22 04:15:25;;;;;;;17.03;5.50;;;28.80;54.50;;;;;;5070109;28;20272;-72
2021/12/22 04:17:52;;;;;;;13.15;5.05;;;29.10;54.10;;;;;;5071954;28;20168;-77
2021/12/22 04:20:20;;;;;;;20.80;4.97;;;29.30;52.40;;;;;;5072852;28;20214;-75
2021/12/22 04:22:48;;;;;;;16.23;4.60;;;28.80;53.60;;;;;;5072081;28;20229;-78
2021/12/22 04:25:21;;;;;;;18.57;5.47;;;28.30;55.40;;;;;;5073210;28;20222;-78
2021/12/22 04:27:57;;;;;;;15.97;5.17;;;28.50;55.70;;;;;;5065400;28;20191;-77
2021/12/22 04:30:32;;;;;;;18.23;5.60;;;27.80;56.50;;;;;;5071185;28;20641;-77
2021/12/22 04:33:06;;;;;;;14.60;5.27;;;28.30;55.80;;;;;;5073405;28;20179;-75
2021/12/22 04:35:34;;;;;;;14.47;5.27;;;28.30;55.30;;;;;;5072052;28;20283;-77
2021/12/22 04:38:02;;;;;;;15.93;5.20;;;27.90;56.50;;;;;;5072774;28;20171;-78
2021/12/22 04:40:30;;;;;;;14.80;5.40;;;27.80;56.90;;;;;;5071830;28;20175;-75
2021/12/22 04:42:57;;;;;;;16.80;5.13;;;28.10;56.10;;;;;;5072288;28;20220;-74
2021/12/22 04:45:25;;;;;;;24.83;5.97;;;27.80;56.30;;;;;;5072655;28;20183;-75
2021/12/22 04:47:52;;;;;;;18.43;5.70;;;27.80;56.60;;;;;;5072584;28;20541;-77
2021/12/22 04:50:22;;;;;;;15.00;5.43;;;27.60;56.40;;;;;;5065285;28;20530;-73
2021/12/22 04:53:00;;;;;;;16.33;5.83;;;27.70;56.60;;;;;;5072846;28;20191;-73
2021/12/22 04:55:28;;;;;;;17.47;5.60;;;27.70;56.30;;;;;;5067823;28;20211;-73
2021/12/22 04:57:58;;;;;;;23.50;5.60;;;27.40;56.90;;;;;;5065587;28;20250;-74
2021/12/22 05:00:28;;;;;;;19.40;5.47;;;27.00;58.40;;;;;;5063957;28;20269;-73
2021/12/22 05:02:56;;;;;;;15.47;5.50;;;27.30;57.40;;;;;;5053177;28;20187;-74
2021/12/22 05:05:24;;;;;;;12.27;5.17;;;27.30;57.60;;;;;;5059788;28;20641;-72
2021/12/22 05:07:52;;;;;;;15.57;5.70;;;27.50;57.10;;;;;;5069259;28;20179;-70
2021/12/22 05:10:21;;;;;;;16.97;4.90;;;27.50;56.20;;;;;;5071623;28;20191;-75
2021/12/22 05:12:48;;;;;;;19.37;5.53;;;27.60;55.70;;;;;;5069305;28;20270;-70
2021/12/22 05:15:21;;;;;;;13.13;5.53;;;27.30;56.10;;;;;;5071762;28;20288;-71
2021/12/22 05:20:24;;;;;;;14.10;5.07;;;26.80;58.00;;;;;;5064851;28;20581;-75
2021/12/22 05:22:52;;;;;;;12.20;5.17;;;26.80;57.30;;;;;;5071573;28;20303;-73
2021/12/22 05:25:20;;;;;;;14.40;6.03;;;26.80;57.80;;;;;;5071680;28;20174;-73
2021/12/22 05:27:47;;;;;;;17.23;5.80;;;26.60;58.50;;;;;;5071482;28;20188;-71
2021/12/22 05:30:15;;;;;;;16.30;5.97;;;26.40;59.10;;;;;;5063047;28;20183;-73
2021/12/22 05:32:42;;;;;;;22.33;6.60;;;26.20;59.60;;;;;;5071170;28;20247;-73
2021/12/22 05:35:11;;;;;;;18.23;6.70;;;25.90;60.60;;;;;;5070965;28;20581;-71
2021/12/22 05:37:39;;;;;;;14.97;5.90;;;26.00;60.50;;;;;;5068378;28;20692;-71
2021/12/22 05:40:09;;;;;;;15.93;5.53;;;26.10;59.70;;;;;;5071469;28;20541;-70
2021/12/22 05:42:37;;;;;;;21.03;6.23;;;26.00;59.80;;;;;;5067808;28;20182;-73
2021/12/22 05:45:05;;;;;;;16.93;5.93;;;25.80;60.20;;;;;;5070920;28;20167;-71
2021/12/22 05:47:33;;;;;;;20.90;6.50;;;25.80;60.70;;;;;;5071524;28;20266;-70
2021/12/22 05:50:03;;;;;;;16.83;6.50;;;25.60;60.90;;;;;;5067851;28;20553;-72
2021/12/22 05:52:31;;;;;;;14.07;6.27;;;25.60;61.80;;;;;;5071300;28;20183;-71
2021/12/22 05:54:58;;;;;;;25.43;6.87;;;25.70;61.70;;;;;;5069854;28;20587;-71
2021/12/22 05:57:26;;;;;;;20.37;6.80;;;25.60;62.30;;;;;;5063716;28;20527;-70
2021/12/22 05:59:53;;;;;;;17.93;5.90;;;25.80;62.40;;;;;;5059281;28;20207;-71
2021/12/22 06:02:20;;;;;;;16.70;5.80;;;25.90;61.80;;;;;;5070434;28;20737;-71
2021/12/22 06:04:48;;;;;;;17.50;5.30;;;25.80;62.80;;;;;;5070560;28;20652;-71
2021/12/22 06:07:23;;;;;;;14.50;5.30;;;25.70;63.30;;;;;;5069748;28;20321;-72
2021/12/22 06:09:51;;;;;;;18.13;6.10;;;25.60;63.60;;;;;;5061549;28;20185;-71
2021/12/22 06:12:18;;;;;;;17.57;5.53;;;25.80;63.30;;;;;;5065387;28;20534;-71
2021/12/22 06:14:46;;;;;;;15.47;4.97;;;25.60;63.10;;;;;;5059943;28;20642;-72
2021/12/22 06:17:14;;;;;;;22.33;5.60;;;25.50;63.70;;;;;;5070930;28;20187;-72
2021/12/22 06:19:41;;;;;;;13.13;5.00;;;25.40;63.90;;;;;;5070277;28;20275;-75
2021/12/22 06:22:11;;;;;;;12.03;4.20;;;25.30;64.80;;;;;;5072292;28;20708;-72
2021/12/22 06:24:39;;;;;;;18.10;5.77;;;25.30;64.90;;;;;;5069550;28;20183;-73
2021/12/22 06:27:06;;;;;;;15.07;5.23;;;25.30;63.30;;;;;;5069912;28;20557;-72
2021/12/22 06:29:33;;;;;;;20.33;5.80;;;25.20;64.00;;;;;;5071058;28;20554;-72
2021/12/22 06:32:01;;;;;;;15.27;5.97;;;25.30;63.80;;;;;;5069512;28;20614;-71
2021/12/22 06:34:28;;;;;;;17.87;7.97;;;25.30;64.00;;;;;;5071462;28;20218;-71
2021/12/22 06:36:56;;;;;;;15.23;4.73;;;25.30;64.20;;;;;;5072282;28;20214;-71
2021/12/22 06:39:23;;;;;;;17.20;4.70;;;25.30;64.90;;;;;;5071488;28;20201;-73
2021/12/22 06:41:51;;;;;;;14.93;4.33;;;25.20;65.10;;;;;;5073847;28;20198;-72
2021/12/22 06:44:18;;;;;;;16.43;4.63;;;25.20;64.90;;;;;;5072091;28;20225;-71
2021/12/22 06:46:45;;;;;;;14.03;3.90;;;25.40;64.70;;;;;;5071600;28;20187;-72
2021/12/22 06:49:16;;;;;;;16.50;7.00;;;25.40;64.30;;;;;;5073452;28;20241;-71
2021/12/22 06:51:43;;;;;;;19.00;5.90;;;25.40;64.40;;;;;;5071019;28;20171;-72
2021/12/22 06:54:11;;;;;;;17.50;4.43;;;25.30;65.20;;;;;;5074393;28;20199;-73
2021/12/22 06:56:38;;;;;;;17.47;4.07;;;25.30;64.90;;;;;;5071501;28;20700;-72
2021/12/22 06:59:06;;;;;;;13.13;4.00;;;25.50;64.70;;;;;;5070960;28;20183;-71
2021/12/22 07:01:35;;;;;;;11.03;3.57;;;25.50;65.00;;;;;;5070812;28;20179;-72
2021/12/22 07:04:03;;;;;;;9.97;3.87;;;25.50;64.40;;;;;;5069794;28;20187;-72
2021/12/22 07:06:31;;;;;;;10.90;3.47;;;25.70;64.10;;;;;;5068514;28;20226;-70
2021/12/22 07:08:59;;;;;;;10.17;3.40;;;25.80;63.90;;;;;;5053820;28;20492;-75
2021/12/22 07:11:27;;;;;;;10.40;3.63;;;25.90;64.10;;;;;;5072585;28;20187;-74
2021/12/22 07:13:55;;;;;;;13.77;3.70;;;26.00;63.90;;;;;;5072074;28;20179;-75
2021/12/22 07:16:23;;;;;;;13.47;3.20;;;26.60;62.20;;;;;;5075838;28;20725;-74
2021/12/22 07:18:50;;;;;;;14.43;3.53;;;26.40;62.50;;;;;;5069796;28;20206;-71
2021/12/22 07:21:17;;;;;;;13.63;3.47;;;26.10;63.40;;;;;;5068343;28;20274;-73
2021/12/22 07:23:47;;;;;;;11.10;3.47;;;25.90;64.10;;;;;;5069360;28;20544;-74
2021/12/22 07:26:15;;;;;;;16.10;3.57;;;25.70;63.90;;;;;;5073789;28;20223;-71
2021/12/22 07:28:45;;;;;;;13.37;4.97;;;25.40;63.70;;;;;;5070648;28;20188;-73
2021/12/22 07:31:13;;;;;;;10.03;2.93;;;25.30;65.40;;;;;;5072262;28;20337;-74
2021/12/22 07:33:48;;;;;;;14.27;3.40;;;25.30;65.70;;;;;;5072991;28;20547;-74
2021/12/22 07:36:16;;;;;;;11.97;2.80;;;25.30;65.50;;;;;;5073843;28;20301;-73
2021/12/22 07:39:04;;;;;;;14.37;3.67;;;25.20;65.50;;;;;;5073809;28;20176;-73
2021/12/22 07:41:37;;;;;;;11.80;3.50;;;25.20;65.50;;;;;;5068026;28;20258;-75
2021/12/22 07:44:07;;;;;;;11.57;3.50;;;25.30;65.30;;;;;;5072399;28;20301;-73
2021/12/22 07:46:37;;;;;;;13.00;3.20;;;25.20;65.20;;;;;;5072724;28;20258;-72
2021/12/22 07:49:05;;;;;;;10.93;3.23;;;25.00;66.00;;;;;;5073961;28;20179;-72
2021/12/22 07:51:32;;;;;;;14.57;5.50;;;24.90;66.60;;;;;;5073813;28;20178;-74
2021/12/22 07:54:01;;;;;;;17.93;5.40;;;24.80;67.40;;;;;;5074073;28;20187;-73
2021/12/22 07:56:31;;;;;;;13.60;3.70;;;24.80;67.60;;;;;;5073989;28;20222;-74
2021/12/22 07:59:01;;;;;;;12.00;3.47;;;24.90;67.80;;;;;;5072671;28;20186;-72
2021/12/22 08:01:30;;;;;;;19.07;4.10;;;24.80;68.20;;;;;;5074041;28;20187;-73
2021/12/22 08:04:03;;;;;;;11.30;3.20;;;24.90;68.40;;;;;;5073812;28;20248;-74
2021/12/22 08:06:31;;;;;;;14.53;3.53;;;24.90;68.40;;;;;;5073645;28;20187;-75
2021/12/22 08:09:01;;;;;;;15.03;3.80;;;24.90;68.50;;;;;;5073435;28;20174;-73
2021/12/22 08:11:40;;;;;;;16.47;3.27;;;24.80;68.90;;;;;;5072824;28;20199;-75
2021/12/22 08:14:07;;;;;;;10.53;3.20;;;24.70;69.00;;;;;;5073321;28;20195;-74
2021/12/22 08:16:35;;;;;;;7.60;3.10;;;24.70;69.30;;;;;;5073410;28;20218;-75
2021/12/22 08:19:02;;;;;;;20.17;4.23;;;24.80;69.30;;;;;;5073276;28;20187;-75
2021/12/22 08:21:33;;;;;;;17.97;3.73;;;24.80;69.70;;;;;;5071878;28;20586;-75
2021/12/22 08:24:06;;;;;;;15.77;3.30;;;24.80;69.50;;;;;;5073295;28;20561;-73
2021/12/22 08:26:34;;;;;;;13.77;3.97;;;24.70;69.30;;;;;;5073097;28;20546;-72
2021/12/22 08:29:04;;;;;;;12.10;4.00;;;24.70;69.50;;;;;;5072492;28;20193;-74
2021/12/22 08:31:31;;;;;;;13.17;3.07;;;24.60;69.90;;;;;;5072665;28;20178;-72
2021/12/22 08:33:58;;;;;;;16.20;4.03;;;24.60;70.10;;;;;;5076194;28;20182;-73
2021/12/22 08:39:16;;;;;;;16.10;3.87;;;24.40;70.50;;;;;;5073915;28;20194;-71
2021/12/22 08:41:47;;;;;;;12.20;3.20;;;24.30;71.00;;;;;;5072518;28;20191;-72
2021/12/22 08:44:19;;;;;;;14.53;3.23;;;24.30;71.60;;;;;;5065999;28;20219;-72
2021/12/22 08:46:56;;;;;;;16.90;5.57;;;24.30;71.20;;;;;;5072496;28;20668;-72
2021/12/22 08:49:30;;;;;;;16.13;5.63;;;24.30;71.30;;;;;;5071602;28;20236;-73
2021/12/22 08:52:00;;;;;;;8.93;3.70;;;24.30;71.10;;;;;;5072251;28;20183;-71
2021/12/22 08:54:28;;;;;;;11.43;3.70;;;24.40;70.80;;;;;;5072699;28;20179;-74
2021/12/22 08:56:58;;;;;;;14.90;3.07;;;24.30;70.80;;;;;;5062528;28;20306;-74
2021/12/22 08:59:29;;;;;;;11.87;2.80;;;24.30;70.70;;;;;;5072788;28;20183;-74
2021/12/22 09:02:03;;;;;;;15.30;3.43;;;24.30;71.10;;;;;;5071648;28;20198;-72
2021/12/22 09:04:33;;;;;;;11.57;2.90;;;24.30;71.30;;;;;;5068516;28;20214;-72
2021/12/22 09:07:01;;;;;;;14.53;3.33;;;24.20;71.70;;;;;;5077174;28;20186;-73
2021/12/22 09:09:28;;;;;;;10.33;2.90;;;24.20;71.90;;;;;;5071433;28;20175;-72
2021/12/22 09:11:56;;;;;;;15.07;3.43;;;24.10;71.80;;;;;;5071412;28;20178;-70
2021/12/22 09:14:24;;;;;;;17.37;7.93;;;24.10;71.80;;;;;;5072494;28;20230;-73
2021/12/22 09:16:53;;;;;;;13.70;4.20;;;24.10;72.00;;;;;;5078431;28;20272;-72
2021/12/22 09:19:20;;;;;;;11.43;3.60;;;24.10;72.20;;;;;;5074000;28;20254;-73
2021/12/22 09:21:51;;;;;;;12.47;3.43;;;24.10;72.40;;;;;;5074663;28;20255;-76
2021/12/22 09:24:19;;;;;;;17.27;3.10;;;24.20;72.20;;;;;;5072565;28;20263;-71
2021/12/22 09:26:46;;;;;;;15.20;3.23;;;24.10;72.10;;;;;;5071735;28;20206;-73
2021/12/22 09:29:20;;;;;;;14.67;3.13;;;24.10;72.00;;;;;;5071835;28;20195;-71
2021/12/22 09:31:53;;;;;;;12.50;3.40;;;24.20;72.10;;;;;;5074614;28;20178;-73
2021/12/22 09:34:20;;;;;;;11.90;3.37;;;24.00;72.30;;;;;;5070528;28;20194;-72
2021/12/22 09:36:48;;;;;;;11.23;3.83;;;24.00;72.50;;;;;;5070640;28;20257;-72
2021/12/22 09:39:15;;;;;;;17.07;3.67;;;24.10;72.50;;;;;;5071010;28;20190;-75
2021/12/22 09:41:42;;;;;;;11.83;3.53;;;24.00;72.50;;;;;;5069657;28;20250;-72
2021/12/22 09:44:10;;;;;;;19.83;3.33;;;24.10;72.30;;;;;;5072016;28;20179;-73
2021/12/22 09:46:40;;;;;;;14.93;3.57;;;24.00;72.40;;;;;;5071874;28;20556;-71
2021/12/22 09:49:24;;;;;;;14.60;3.63;;;24.10;72.50;;;;;;5070727;28;20187;-71
2021/12/22 09:54:41;;;;;;;15.17;3.73;;;24.00;72.80;;;;;;5071738;28;20247;-74
2021/12/22 09:57:09;;;;;;;12.47;3.07;;;23.90;73.20;;;;;;5071736;28;20198;-72
2021/12/22 09:59:37;;;;;;;14.50;3.10;;;23.90;73.30;;;;;;5075927;28;20186;-72
2021/12/22 10:02:04;;;;;;;20.90;4.80;;;23.80;73.70;;;;;;5076447;28;20190;-72
2021/12/22 10:04:32;;;;;;;12.77;3.00;;;23.90;73.80;;;;;;5076018;28;20642;-75
2021/12/22 10:07:01;;;;;;;17.83;4.23;;;23.90;73.80;;;;;;5082626;28;20189;-73
2021/12/22 10:09:30;;;;;;;17.93;4.00;;;23.90;73.70;;;;;;5080038;28;20174;-74
2021/12/22 10:12:05;;;;;;;20.73;3.73;;;23.90;73.80;;;;;;5077599;28;20174;-73
2021/12/22 10:14:33;;;;;;;11.77;3.40;;;23.80;74.10;;;;;;5075899;28;20190;-72
2021/12/22 10:17:01;;;;;;;15.17;3.77;;;23.80;74.30;;;;;;5079944;28;20593;-75
2021/12/22 10:19:28;;;;;;;14.77;3.57;;;23.90;74.30;;;;;;5075564;28;20187;-72
2021/12/22 10:21:58;;;;;;;14.67;4.17;;;23.80;74.40;;;;;;5073899;28;20187;-72
2021/12/22 10:24:38;;;;;;;13.90;4.27;;;23.80;74.80;;;;;;5080321;28;20175;-73
2021/12/22 10:27:12;;;;;;;15.77;3.63;;;23.80;74.90;;;;;;5081455;28;20190;-73
2021/12/22 10:29:39;;;;;;;19.37;5.47;;;23.70;75.00;;;;;;5078374;28;20183;-73
2021/12/22 10:32:17;;;;;;;14.13;3.53;;;23.70;75.20;;;;;;5078078;28;20183;-73
2021/12/22 10:35:14;;;;;;;15.70;3.20;;;23.70;75.20;;;;;;5074974;28;20207;-73
2021/12/22 10:37:44;;;;;;;15.63;3.63;;;23.70;75.60;;;;;;5072051;28;20628;-70
2021/12/22 10:40:29;;;;;;;14.80;3.37;;;23.70;75.50;;;;;;5075306;28;20179;-72
2021/12/22 10:42:57;;;;;;;17.87;4.10;;;23.70;75.60;;;;;;5074122;28;20186;-74
2021/12/22 10:45:26;;;;;;;13.70;3.77;;;23.70;75.90;;;;;;5075182;28;20540;-73
2021/12/22 10:50:46;;;;;;;19.43;4.63;;;23.70;76.00;;;;;;5070746;28;20183;-71
2021/12/22 10:53:15;;;;;;;12.90;3.97;;;23.80;76.10;;;;;;5074621;28;20668;-74
2021/12/22 10:55:45;;;;;;;18.93;4.70;;;23.80;75.90;;;;;;5074440;28;20210;-71
2021/12/22 10:58:29;;;;;;;16.37;3.97;;;23.80;75.90;;;;;;5073698;28;20261;-71
2021/12/22 11:01:08;;;;;;;15.17;2.90;;;23.70;75.80;;;;;;5074649;28;20258;-71
2021/12/22 11:03:44;;;;;;;14.67;3.83;;;23.80;75.30;;;;;;5074935;28;20190;-72
2021/12/22 11:06:27;;;;;;;15.57;3.60;;;23.80;75.10;;;;;;5072948;28;20191;-71
2021/12/22 11:08:59;;;;;;;14.53;3.40;;;23.80;74.70;;;;;;5073715;28;20200;-71
2021/12/22 11:11:38;;;;;;;20.63;3.87;;;23.80;74.60;;;;;;5067677;28;20191;-71
2021/12/22 11:14:11;;;;;;;10.80;3.70;;;23.90;74.40;;;;;;5072828;28;20171;-71
2021/12/22 11:16:53;;;;;;;20.50;3.83;;;23.90;74.30;;;;;;5074539;28;20810;-72
2021/12/22 11:19:21;;;;;;;18.67;3.83;;;23.90;74.50;;;;;;5066721;28;20198;-72
2021/12/22 11:22:02;;;;;;;14.23;4.13;;;23.90;74.50;;;;;;5074405;28;20225;-71
2021/12/22 11:24:31;;;;;;;15.67;6.13;;;23.90;74.60;;;;;;5068282;28;20539;-71
2021/12/22 11:26:59;;;;;;;13.63;5.37;;;24.00;74.70;;;;;;5065471;28;20184;-70
2021/12/22 11:29:27;;;;;;;20.20;4.20;;;23.90;74.70;;;;;;5074270;28;20187;-72
2021/12/22 11:31:55;;;;;;;19.03;4.37;;;23.90;74.90;;;;;;5066646;28;20187;-73
2021/12/22 11:34:23;;;;;;;14.53;3.43;;;23.90;74.90;;;;;;5072571;28;20183;-70
2021/12/22 11:36:51;;;;;;;13.77;3.10;;;23.90;75.00;;;;;;5072304;28;20207;-72
2021/12/22 11:39:19;;;;;;;17.50;4.17;;;23.90;75.00;;;;;;5072916;28;20179;-70
2021/12/22 11:41:58;;;;;;;17.23;4.20;;;23.90;75.10;;;;;;5073151;28;20195;-72
2021/12/22 11:44:27;;;;;;;17.53;3.93;;;23.90;75.00;;;;;;5067129;28;20179;-71
2021/12/22 11:46:57;;;;;;;14.17;3.43;;;23.90;75.00;;;;;;5072365;28;20175;-71
2021/12/22 11:49:27;;;;;;;17.23;3.90;;;23.80;74.80;;;;;;5069764;28;20211;-70
2021/12/22 11:51:54;;;;;;;18.23;3.37;;;23.80;74.80;;;;;;5064866;28;20285;-73
2021/12/22 11:54:27;;;;;;;19.83;3.77;;;23.80;75.00;;;;;;5072716;28;20237;-70
2021/12/22 11:56:57;;;;;;;14.00;3.53;;;23.80;75.20;;;;;;5063119;28;20553;-72
2021/12/22 11:59:38;;;;;;;17.93;3.83;;;23.80;75.10;;;;;;5072641;28;20210;-70
2021/12/22 12:02:34;;;;;;;16.17;4.17;;;23.80;75.30;;;;;;5072406;28;20276;-70
2021/12/22 12:05:20;;;;;;;18.93;4.00;;;23.80;75.40;;;;;;5070053;28;20282;-70
2021/12/22 12:07:55;;;;;;;16.40;3.43;;;23.80;75.60;;;;;;5073972;28;20179;-72
2021/12/22 12:10:38;;;;;;;18.10;4.30;;;23.80;75.80;;;;;;5073361;28;20245;-72
2021/12/22 12:13:19;;;;;;;21.63;4.23;;;23.80;75.90;;;;;;5072452;28;20178;-74
2021/12/22 12:22:21;;;;;;;16.13;3.80;;;23.80;76.80;;;;;;5073261;28;20202;-71
2021/12/22 12:25:05;;;;;;;19.77;4.67;;;23.80;77.00;;;;;;5071840;28;20186;-73
2021/12/22 12:27:50;;;;;;;21.63;3.93;;;23.80;77.30;;;;;;5065441;28;20262;-72
2021/12/22 12:30:50;;;;;;;15.97;3.83;;;23.80;77.50;;;;;;5072998;28;20649;-73
2021/12/22 12:33:29;;;;;;;18.87;4.40;;;23.80;77.80;;;;;;5072884;28;20211;-72
2021/12/22 12:36:04;;;;;;;20.27;4.43;;;23.80;77.90;;;;;;5058732;28;20773;-75
2021/12/22 12:38:45;;;;;;;22.20;4.57;;;23.80;78.10;;;;;;5074404;28;20710;-71
2021/12/22 12:41:25;;;;;;;21.13;4.33;;;23.70;78.20;;;;;;5069086;28;20194;-72
2021/12/22 12:43:57;;;;;;;17.30;4.17;;;23.70;78.30;;;;;;5072499;28;20179;-78
2021/12/22 12:46:38;;;;;;;18.17;3.90;;;23.70;78.50;;;;;;5065940;28;20182;-72
2021/12/22 12:51:41;;;;;;;18.27;4.53;;;23.60;78.80;;;;;;5072454;28;20177;-76
2021/12/22 12:54:30;;;;;;;21.70;4.30;;;23.60;78.80;;;;;;5071681;28;20217;-75
2021/12/22 12:57:18;;;;;;;18.10;4.40;;;23.50;78.90;;;;;;5061660;28;20230;-72
2021/12/22 12:59:47;;;;;;;14.87;4.13;;;23.60;78.80;;;;;;5075368;28;20186;-76
2021/12/22 13:02:22;;;;;;;25.23;5.07;;;23.60;78.80;;;;;;5078579;28;20187;-74
2021/12/22 13:04:56;;;;;;;18.80;4.27;;;23.50;78.70;;;;;;5075230;28;20175;-73
2021/12/22 13:07:24;;;;;;;15.43;4.63;;;23.50;78.90;;;;;;5072637;28;20252;-72
2021/12/22 13:09:55;;;;;;;14.87;4.40;;;23.60;78.60;;;;;;5072430;28;20194;-75
2021/12/22 13:18:11;;;;;;;12.63;3.60;;;23.50;78.80;;;;;;5070168;28;20262;-71
2021/12/22 13:20:41;;;;;;;18.80;4.43;;;23.60;78.70;;;;;;5077851;28;20178;-73
2021/12/22 13:23:16;;;;;;;15.67;4.60;;;23.60;78.60;;;;;;5070666;28;20858;-76
2021/12/22 13:25:47;;;;;;;20.70;4.43;;;23.70;78.40;;;;;;5072231;28;20186;-73
2021/12/22 13:28:24;;;;;;;13.47;3.77;;;23.80;78.20;;;;;;5069014;28;20198;-72
2021/12/22 13:30:56;;;;;;;16.03;3.83;;;23.80;78.10;;;;;;5071881;28;20186;-72
2021/12/22 13:33:29;;;;;;;16.00;4.60;;;23.70;78.40;;;;;;5071607;28;20176;-73
2021/12/22 13:35:58;;;;;;;15.53;4.33;;;23.80;78.60;;;;;;5076091;28;20231;-73
2021/12/22 13:38:38;;;;;;;15.00;5.17;;;23.70;78.80;;;;;;5072408;28;20171;-73
2021/12/22 13:41:18;;;;;;;12.50;4.50;;;23.70;79.20;;;;;;5071518;28;20262;-71